sensor_id;sensor_type;location;lat;lon;timestamp;temperature;humidity
54168;DHT22;40072;50.958;3.592;2022-08-11T00:01:44;20.20;99.90
54168;DHT22;40072;50.958;3.592;2022-08-11T00:04:11;20.20;99.90
54168;DHT22;40072;50.958;3.592;2022-08-11T00:06:38;20.20;99.90
54168;DHT22;40072;50.958;3.592;2022-08-11T00:09:11;20.10;99.90
54168;DHT22;40072;50.958;3.592;2022-08-11T00:11:44;20.20;99.90
54168;DHT22;40072;50.958;3.592;2022-08-11T00:14:16;20.00;99.90
54168;DHT22;40072;50.958;3.592;2022-08-11T00:16:43;19.80;99.90
54168;DHT22;40072;50.958;3.592;2022-08-11T00:19:21;19.90;99.90
54168;DHT22;40072;50.958;3.592;2022-08-11T00:21:47;19.90;99.90
54168;DHT22;40072;50.958;3.592;2022-08-11T00:24:14;19.90;99.90
54168;DHT22;40072;50.958;3.592;2022-08-11T00:26:47;19.80;99.90
54168;DHT22;40072;50.958;3.592;2022-08-11T00:29:13;19.90;99.90
54168;DHT22;40072;50.958;3.592;2022-08-11T00:31:46;19.90;99.90
54168;DHT22;40072;50.958;3.592;2022-08-11T00:34:12;19.90;99.90
54168;DHT22;40072;50.958;3.592;2022-08-11T00:36:51;19.80;99.90
54168;DHT22;40072;50.958;3.592;2022-08-11T00:39:22;19.90;99.90
54168;DHT22;40072;50.958;3.592;2022-08-11T01:04:15;19.50;99.90
54168;DHT22;40072;50.958;3.592;2022-08-11T01:18:37;19.20;99.90
54168;DHT22;40072;50.958;3.592;2022-08-11T01:53:06;18.20;99.90
54168;DHT22;40072;50.958;3.592;2022-08-11T01:55:46;18.10;99.90
54168;DHT22;40072;50.958;3.592;2022-08-11T01:58:59;18.10;99.90
54168;DHT22;40072;50.958;3.592;2022-08-11T02:01:40;18.10;99.90
54168;DHT22;40072;50.958;3.592;2022-08-11T02:10:24;18.00;99.90
54168;DHT22;40072;50.958;3.592;2022-08-11T02:16:25;17.90;99.90
54168;DHT22;40072;50.958;3.592;2022-08-11T02:22:02;17.80;99.90
54168;DHT22;40072;50.958;3.592;2022-08-11T02:25:07;17.70;99.90
54168;DHT22;40072;50.958;3.592;2022-08-11T02:27:44;17.60;99.90
54168;DHT22;40072;50.958;3.592;2022-08-11T02:30:17;17.50;99.90
54168;DHT22;40072;50.958;3.592;2022-08-11T02:33:04;17.60;99.90
54168;DHT22;40072;50.958;3.592;2022-08-11T02:36:07;17.60;99.90
54168;DHT22;40072;50.958;3.592;2022-08-11T02:39:02;17.50;99.90
54168;DHT22;40072;50.958;3.592;2022-08-11T02:45:08;17.40;99.90
54168;DHT22;40072;50.958;3.592;2022-08-11T02:50:48;17.30;99.90
54168;DHT22;40072;50.958;3.592;2022-08-11T02:56:36;17.40;99.90
54168;DHT22;40072;50.958;3.592;2022-08-11T02:59:31;17.30;99.90
54168;DHT22;40072;50.958;3.592;2022-08-11T03:08:30;16.90;99.90
54168;DHT22;40072;50.958;3.592;2022-08-11T03:14:29;16.90;99.90
54168;DHT22;40072;50.958;3.592;2022-08-11T03:17:29;16.90;99.90
54168;DHT22;40072;50.958;3.592;2022-08-11T03:26:06;17.00;99.90
54168;DHT22;40072;50.958;3.592;2022-08-11T03:31:44;16.80;99.90
54168;DHT22;40072;50.958;3.592;2022-08-11T03:34:24;16.70;99.90
54168;DHT22;40072;50.958;3.592;2022-08-11T03:37:25;16.50;99.90
54168;DHT22;40072;50.958;3.592;2022-08-11T03:43:10;16.40;99.90
54168;DHT22;40072;50.958;3.592;2022-08-11T03:48:58;16.40;99.90
54168;DHT22;40072;50.958;3.592;2022-08-11T03:51:32;16.50;99.90
54168;DHT22;40072;50.958;3.592;2022-08-11T03:54:27;16.50;99.90
54168;DHT22;40072;50.958;3.592;2022-08-11T04:16:14;16.60;99.90
54168;DHT22;40072;50.958;3.592;2022-08-11T04:24:57;16.50;99.90
54168;DHT22;40072;50.958;3.592;2022-08-11T04:27:59;16.60;99.90
54168;DHT22;40072;50.958;3.592;2022-08-11T04:33:57;16.60;99.90
54168;DHT22;40072;50.958;3.592;2022-08-11T04:36:40;16.70;99.90
54168;DHT22;40072;50.958;3.592;2022-08-11T04:45:33;16.50;99.90
54168;DHT22;40072;50.958;3.592;2022-08-11T04:51:30;16.50;99.90
54168;DHT22;40072;50.958;3.592;2022-08-11T04:54:18;16.50;99.90
54168;DHT22;40072;50.958;3.592;2022-08-11T04:57:13;16.60;99.90
54168;DHT22;40072;50.958;3.592;2022-08-11T05:06:38;16.40;99.90
54168;DHT22;40072;50.958;3.592;2022-08-11T05:09:37;16.50;99.90
54168;DHT22;40072;50.958;3.592;2022-08-11T05:14:51;16.70;99.90
54168;DHT22;40072;50.958;3.592;2022-08-11T05:18:28;16.90;99.90
54168;DHT22;40072;50.958;3.592;2022-08-11T05:20:50;17.20;99.90
54168;DHT22;40072;50.958;3.592;2022-08-11T05:23:38;17.80;99.90
54168;DHT22;40072;50.958;3.592;2022-08-11T05:26:24;18.00;99.90
54168;DHT22;40072;50.958;3.592;2022-08-11T05:29:35;18.20;99.90
54168;DHT22;40072;50.958;3.592;2022-08-11T05:32:22;18.30;99.90
54168;DHT22;40072;50.958;3.592;2022-08-11T05:35:07;18.50;99.90
54168;DHT22;40072;50.958;3.592;2022-08-11T05:37:42;18.90;99.90
54168;DHT22;40072;50.958;3.592;2022-08-11T05:40:27;19.50;99.90
54168;DHT22;40072;50.958;3.592;2022-08-11T05:43:13;20.30;99.90
54168;DHT22;40072;50.958;3.592;2022-08-11T05:46:04;20.90;99.90
54168;DHT22;40072;50.958;3.592;2022-08-11T05:48:49;21.00;99.90
54168;DHT22;40072;50.958;3.592;2022-08-11T05:51:40;21.20;99.90
54168;DHT22;40072;50.958;3.592;2022-08-11T05:54:26;21.70;99.40
54168;DHT22;40072;50.958;3.592;2022-08-11T05:57:22;21.70;98.60
54168;DHT22;40072;50.958;3.592;2022-08-11T05:59:50;21.70;98.50
54168;DHT22;40072;50.958;3.592;2022-08-11T06:02:23;21.00;99.20
54168;DHT22;40072;50.958;3.592;2022-08-11T06:05:00;20.70;99.90
54168;DHT22;40072;50.958;3.592;2022-08-11T06:07:31;20.70;99.90
54168;DHT22;40072;50.958;3.592;2022-08-11T06:09:58;20.90;99.90
54168;DHT22;40072;50.958;3.592;2022-08-11T06:12:29;21.10;99.90
54168;DHT22;40072;50.958;3.592;2022-08-11T06:15:01;21.20;99.50
54168;DHT22;40072;50.958;3.592;2022-08-11T06:17:29;21.00;99.90
54168;DHT22;40072;50.958;3.592;2022-08-11T06:20:06;20.80;99.90
54168;DHT22;40072;50.958;3.592;2022-08-11T06:22:36;20.80;99.90
54168;DHT22;40072;50.958;3.592;2022-08-11T06:25:03;20.60;99.90
54168;DHT22;40072;50.958;3.592;2022-08-11T06:27:33;20.60;99.90
54168;DHT22;40072;50.958;3.592;2022-08-11T06:30:00;20.70;99.90
54168;DHT22;40072;50.958;3.592;2022-08-11T06:32:30;20.80;99.90
54168;DHT22;40072;50.958;3.592;2022-08-11T06:40:57;21.50;99.20
54168;DHT22;40072;50.958;3.592;2022-08-11T06:43:50;21.30;99.00
54168;DHT22;40072;50.958;3.592;2022-08-11T06:46:33;21.60;99.00
54168;DHT22;40072;50.958;3.592;2022-08-11T06:49:07;21.70;99.10
54168;DHT22;40072;50.958;3.592;2022-08-11T06:51:55;22.00;98.30
54168;DHT22;40072;50.958;3.592;2022-08-11T06:54:24;22.10;97.70
54168;DHT22;40072;50.958;3.592;2022-08-11T06:56:51;22.20;97.80
54168;DHT22;40072;50.958;3.592;2022-08-11T06:59:35;22.40;98.10
54168;DHT22;40072;50.958;3.592;2022-08-11T07:02:25;22.30;97.30
54168;DHT22;40072;50.958;3.592;2022-08-11T07:14:17;22.20;96.90
54168;DHT22;40072;50.958;3.592;2022-08-11T07:17:05;22.20;97.70
54168;DHT22;40072;50.958;3.592;2022-08-11T07:19:33;22.50;96.50
54168;DHT22;40072;50.958;3.592;2022-08-11T07:22:18;22.60;96.90
54168;DHT22;40072;50.958;3.592;2022-08-11T07:25:12;22.80;95.90
54168;DHT22;40072;50.958;3.592;2022-08-11T07:28:02;22.60;96.90
54168;DHT22;40072;50.958;3.592;2022-08-11T07:30:47;22.60;96.60
54168;DHT22;40072;50.958;3.592;2022-08-11T07:33:23;22.90;96.40
54168;DHT22;40072;50.958;3.592;2022-08-11T07:35:52;23.00;96.20
54168;DHT22;40072;50.958;3.592;2022-08-11T07:38:26;23.40;95.00
54168;DHT22;40072;50.958;3.592;2022-08-11T07:41:19;23.60;94.90
54168;DHT22;40072;50.958;3.592;2022-08-11T07:43:48;23.60;94.60
54168;DHT22;40072;50.958;3.592;2022-08-11T07:46:15;23.70;94.90
54168;DHT22;40072;50.958;3.592;2022-08-11T07:49:02;23.90;94.50
54168;DHT22;40072;50.958;3.592;2022-08-11T07:51:47;24.10;94.00
54168;DHT22;40072;50.958;3.592;2022-08-11T07:54:32;24.10;93.70
54168;DHT22;40072;50.958;3.592;2022-08-11T07:56:58;24.00;92.90
54168;DHT22;40072;50.958;3.592;2022-08-11T07:59:24;23.90;93.00
54168;DHT22;40072;50.958;3.592;2022-08-11T08:02:11;24.00;92.90
54168;DHT22;40072;50.958;3.592;2022-08-11T08:04:56;24.50;92.70
54168;DHT22;40072;50.958;3.592;2022-08-11T08:07:41;24.70;92.60
54168;DHT22;40072;50.958;3.592;2022-08-11T08:10:26;24.90;92.30
54168;DHT22;40072;50.958;3.592;2022-08-11T08:13:12;25.10;91.80
54168;DHT22;40072;50.958;3.592;2022-08-11T08:15:57;25.30;91.20
54168;DHT22;40072;50.958;3.592;2022-08-11T08:18:42;25.50;90.80
54168;DHT22;40072;50.958;3.592;2022-08-11T08:21:08;25.60;90.40
54168;DHT22;40072;50.958;3.592;2022-08-11T08:23:45;25.60;90.30
54168;DHT22;40072;50.958;3.592;2022-08-11T08:26:13;25.40;90.20
54168;DHT22;40072;50.958;3.592;2022-08-11T08:29:00;25.50;90.10
54168;DHT22;40072;50.958;3.592;2022-08-11T08:31:47;25.70;87.70
54168;DHT22;40072;50.958;3.592;2022-08-11T08:34:14;25.70;87.80
54168;DHT22;40072;50.958;3.592;2022-08-11T08:36:45;25.70;87.40
54168;DHT22;40072;50.958;3.592;2022-08-11T08:39:12;25.70;88.90
54168;DHT22;40072;50.958;3.592;2022-08-11T08:41:42;25.90;86.70
54168;DHT22;40072;50.958;3.592;2022-08-11T08:44:09;26.10;85.60
54168;DHT22;40072;50.958;3.592;2022-08-11T08:46:47;26.00;85.00
54168;DHT22;40072;50.958;3.592;2022-08-11T08:49:17;26.20;85.60
54168;DHT22;40072;50.958;3.592;2022-08-11T08:51:44;26.30;85.10
54168;DHT22;40072;50.958;3.592;2022-08-11T08:54:19;26.70;84.00
54168;DHT22;40072;50.958;3.592;2022-08-11T08:56:48;26.50;83.40
54168;DHT22;40072;50.958;3.592;2022-08-11T08:59:20;26.70;82.20
54168;DHT22;40072;50.958;3.592;2022-08-11T09:02:01;26.80;82.30
54168;DHT22;40072;50.958;3.592;2022-08-11T09:04:28;26.60;82.90
54168;DHT22;40072;50.958;3.592;2022-08-11T09:06:58;26.80;83.00
54168;DHT22;40072;50.958;3.592;2022-08-11T09:09:24;26.90;82.20
54168;DHT22;40072;50.958;3.592;2022-08-11T09:11:50;27.10;83.30
54168;DHT22;40072;50.958;3.592;2022-08-11T09:14:27;27.40;83.00
54168;DHT22;40072;50.958;3.592;2022-08-11T09:17:23;27.70;81.00
54168;DHT22;40072;50.958;3.592;2022-08-11T09:19:55;27.50;81.30
54168;DHT22;40072;50.958;3.592;2022-08-11T09:22:30;27.90;82.70
54168;DHT22;40072;50.958;3.592;2022-08-11T09:25:15;27.90;81.60
54168;DHT22;40072;50.958;3.592;2022-08-11T09:28:01;27.80;81.10
54168;DHT22;40072;50.958;3.592;2022-08-11T09:30:30;27.70;81.20
54168;DHT22;40072;50.958;3.592;2022-08-11T09:32:58;27.90;79.80
54168;DHT22;40072;50.958;3.592;2022-08-11T09:35:31;28.20;79.40
54168;DHT22;40072;50.958;3.592;2022-08-11T09:37:58;28.50;79.60
54168;DHT22;40072;50.958;3.592;2022-08-11T09:40:46;28.40;79.20
54168;DHT22;40072;50.958;3.592;2022-08-11T09:43:14;28.50;78.40
54168;DHT22;40072;50.958;3.592;2022-08-11T09:46:00;28.70;78.40
54168;DHT22;40072;50.958;3.592;2022-08-11T09:48:29;28.70;79.90
54168;DHT22;40072;50.958;3.592;2022-08-11T09:50:59;28.90;75.80
54168;DHT22;40072;50.958;3.592;2022-08-11T09:53:29;28.80;75.90
54168;DHT22;40072;50.958;3.592;2022-08-11T09:55:55;29.00;74.60
54168;DHT22;40072;50.958;3.592;2022-08-11T09:58:21;29.00;72.80
54168;DHT22;40072;50.958;3.592;2022-08-11T10:00:49;28.90;74.10
54168;DHT22;40072;50.958;3.592;2022-08-11T10:05:47;29.10;76.30
54168;DHT22;40072;50.958;3.592;2022-08-11T10:08:32;29.00;75.10
54168;DHT22;40072;50.958;3.592;2022-08-11T10:10:59;28.90;74.50
54168;DHT22;40072;50.958;3.592;2022-08-11T10:13:34;29.00;74.80
54168;DHT22;40072;50.958;3.592;2022-08-11T10:16:25;28.80;75.70
54168;DHT22;40072;50.958;3.592;2022-08-11T10:18:54;28.70;73.80
54168;DHT22;40072;50.958;3.592;2022-08-11T10:21:41;28.70;74.70
54168;DHT22;40072;50.958;3.592;2022-08-11T10:24:09;29.00;74.60
54168;DHT22;40072;50.958;3.592;2022-08-11T10:26:55;29.10;72.90
54168;DHT22;40072;50.958;3.592;2022-08-11T10:32:12;29.60;73.00
54168;DHT22;40072;50.958;3.592;2022-08-11T10:34:58;29.50;72.20
54168;DHT22;40072;50.958;3.592;2022-08-11T10:37:26;29.50;70.00
54168;DHT22;40072;50.958;3.592;2022-08-11T10:39:59;29.90;70.70
54168;DHT22;40072;50.958;3.592;2022-08-11T10:42:25;30.00;69.80
54168;DHT22;40072;50.958;3.592;2022-08-11T10:45:10;29.80;69.60
54168;DHT22;40072;50.958;3.592;2022-08-11T10:47:56;30.00;68.40
54168;DHT22;40072;50.958;3.592;2022-08-11T10:50:23;30.50;67.30
54168;DHT22;40072;50.958;3.592;2022-08-11T10:53:08;30.40;67.20
54168;DHT22;40072;50.958;3.592;2022-08-11T10:55:53;30.50;66.30
54168;DHT22;40072;50.958;3.592;2022-08-11T10:58:41;30.20;65.40
54168;DHT22;40072;50.958;3.592;2022-08-11T11:01:31;30.10;65.20
54168;DHT22;40072;50.958;3.592;2022-08-11T11:04:01;29.90;65.50
54168;DHT22;40072;50.958;3.592;2022-08-11T11:06:54;30.10;66.30
54168;DHT22;40072;50.958;3.592;2022-08-11T11:09:33;30.50;67.20
54168;DHT22;40072;50.958;3.592;2022-08-11T11:12:18;30.40;66.50
54168;DHT22;40072;50.958;3.592;2022-08-11T11:15:05;30.70;64.00
54168;DHT22;40072;50.958;3.592;2022-08-11T11:18:03;31.00;64.00
54168;DHT22;40072;50.958;3.592;2022-08-11T11:20:56;31.40;62.50
54168;DHT22;40072;50.958;3.592;2022-08-11T11:37:37;33.70;59.30
54168;DHT22;40072;50.958;3.592;2022-08-11T11:40:15;35.00;59.30
54168;DHT22;40072;50.958;3.592;2022-08-11T11:42:43;34.90;58.80
54168;DHT22;40072;50.958;3.592;2022-08-11T11:45:11;35.60;57.30
54168;DHT22;40072;50.958;3.592;2022-08-11T11:47:40;35.50;57.40
54168;DHT22;40072;50.958;3.592;2022-08-11T11:50:07;35.60;57.00
54168;DHT22;40072;50.958;3.592;2022-08-11T11:52:34;34.80;57.00
54168;DHT22;40072;50.958;3.592;2022-08-11T11:55:01;34.10;57.90
54168;DHT22;40072;50.958;3.592;2022-08-11T11:57:27;34.60;57.00
54168;DHT22;40072;50.958;3.592;2022-08-11T12:00:12;36.00;56.90
54168;DHT22;40072;50.958;3.592;2022-08-11T12:02:58;36.30;56.10
54168;DHT22;40072;50.958;3.592;2022-08-11T12:05:25;36.10;55.00
54168;DHT22;40072;50.958;3.592;2022-08-11T12:07:53;35.90;55.90
54168;DHT22;40072;50.958;3.592;2022-08-11T12:10:44;35.00;56.10
54168;DHT22;40072;50.958;3.592;2022-08-11T12:13:12;33.80;57.00
54168;DHT22;40072;50.958;3.592;2022-08-11T12:15:57;34.20;56.20
54168;DHT22;40072;50.958;3.592;2022-08-11T12:18:29;33.50;57.50
54168;DHT22;40072;50.958;3.592;2022-08-11T12:20:58;34.20;57.30
54168;DHT22;40072;50.958;3.592;2022-08-11T12:23:24;33.60;57.50
54168;DHT22;40072;50.958;3.592;2022-08-11T12:26:08;34.30;56.50
54168;DHT22;40072;50.958;3.592;2022-08-11T12:28:53;35.00;56.20
54168;DHT22;40072;50.958;3.592;2022-08-11T12:31:23;34.40;56.70
54168;DHT22;40072;50.958;3.592;2022-08-11T12:33:50;34.00;56.60
54168;DHT22;40072;50.958;3.592;2022-08-11T12:36:16;33.90;56.40
54168;DHT22;40072;50.958;3.592;2022-08-11T12:38:45;33.50;56.20
54168;DHT22;40072;50.958;3.592;2022-08-11T12:41:13;34.60;55.30
54168;DHT22;40072;50.958;3.592;2022-08-11T12:43:59;35.30;55.50
54168;DHT22;40072;50.958;3.592;2022-08-11T12:46:45;35.20;55.30
54168;DHT22;40072;50.958;3.592;2022-08-11T12:49:13;35.50;54.50
54168;DHT22;40072;50.958;3.592;2022-08-11T12:52:03;35.10;55.20
54168;DHT22;40072;50.958;3.592;2022-08-11T12:54:38;35.40;53.70
54168;DHT22;40072;50.958;3.592;2022-08-11T12:57:11;34.00;53.90
54168;DHT22;40072;50.958;3.592;2022-08-11T12:59:57;35.20;54.60
54168;DHT22;40072;50.958;3.592;2022-08-11T13:02:43;33.90;55.40
54168;DHT22;40072;50.958;3.592;2022-08-11T13:05:28;34.40;56.00
54168;DHT22;40072;50.958;3.592;2022-08-11T13:07:59;35.30;54.70
54168;DHT22;40072;50.958;3.592;2022-08-11T13:10:25;35.10;54.70
54168;DHT22;40072;50.958;3.592;2022-08-11T13:13:10;36.20;54.60
54168;DHT22;40072;50.958;3.592;2022-08-11T13:15:37;35.10;54.30
54168;DHT22;40072;50.958;3.592;2022-08-11T13:18:03;35.10;54.40
54168;DHT22;40072;50.958;3.592;2022-08-11T13:20:33;35.80;53.80
54168;DHT22;40072;50.958;3.592;2022-08-11T13:23:00;36.00;53.40
54168;DHT22;40072;50.958;3.592;2022-08-11T13:25:27;36.10;52.80
54168;DHT22;40072;50.958;3.592;2022-08-11T13:27:56;35.10;54.10
54168;DHT22;40072;50.958;3.592;2022-08-11T13:30:27;35.10;54.70
54168;DHT22;40072;50.958;3.592;2022-08-11T13:33:11;35.80;52.30
54168;DHT22;40072;50.958;3.592;2022-08-11T13:35:38;35.20;52.30
54168;DHT22;40072;50.958;3.592;2022-08-11T13:38:05;35.60;52.90
54168;DHT22;40072;50.958;3.592;2022-08-11T13:40:32;34.00;53.40
54168;DHT22;40072;50.958;3.592;2022-08-11T13:42:59;33.70;53.90
54168;DHT22;40072;50.958;3.592;2022-08-11T13:45:25;34.80;53.50
54168;DHT22;40072;50.958;3.592;2022-08-11T13:47:54;34.70;53.90
54168;DHT22;40072;50.958;3.592;2022-08-11T13:50:20;35.20;52.90
54168;DHT22;40072;50.958;3.592;2022-08-11T13:53:07;34.80;53.50
54168;DHT22;40072;50.958;3.592;2022-08-11T13:55:34;35.60;52.90
54168;DHT22;40072;50.958;3.592;2022-08-11T13:58:00;34.70;53.30
54168;DHT22;40072;50.958;3.592;2022-08-11T14:00:28;35.00;53.30
54168;DHT22;40072;50.958;3.592;2022-08-11T14:02:55;35.20;53.20
54168;DHT22;40072;50.958;3.592;2022-08-11T14:05:26;35.30;52.40
54168;DHT22;40072;50.958;3.592;2022-08-11T14:07:58;35.80;51.80
54168;DHT22;40072;50.958;3.592;2022-08-11T14:10:28;35.60;52.40
54168;DHT22;40072;50.958;3.592;2022-08-11T14:13:00;34.50;54.00
54168;DHT22;40072;50.958;3.592;2022-08-11T14:15:47;34.80;53.50
54168;DHT22;40072;50.958;3.592;2022-08-11T14:20:43;34.90;55.30
54168;DHT22;40072;50.958;3.592;2022-08-11T14:23:34;35.30;53.20
54168;DHT22;40072;50.958;3.592;2022-08-11T14:26:02;35.60;52.70
54168;DHT22;40072;50.958;3.592;2022-08-11T14:28:46;35.50;52.60
54168;DHT22;40072;50.958;3.592;2022-08-11T14:31:14;35.10;52.90
54168;DHT22;40072;50.958;3.592;2022-08-11T14:33:40;36.20;51.50
54168;DHT22;40072;50.958;3.592;2022-08-11T14:36:08;35.60;52.50
54168;DHT22;40072;50.958;3.592;2022-08-11T14:38:36;36.10;52.60
54168;DHT22;40072;50.958;3.592;2022-08-11T14:41:03;35.80;52.40
54168;DHT22;40072;50.958;3.592;2022-08-11T14:43:48;34.70;53.40
54168;DHT22;40072;50.958;3.592;2022-08-11T14:46:33;34.50;53.90
54168;DHT22;40072;50.958;3.592;2022-08-11T14:49:18;34.60;53.90
54168;DHT22;40072;50.958;3.592;2022-08-11T14:51:46;34.90;53.80
54168;DHT22;40072;50.958;3.592;2022-08-11T14:54:14;34.00;53.10
54168;DHT22;40072;50.958;3.592;2022-08-11T14:56:58;34.70;52.90
54168;DHT22;40072;50.958;3.592;2022-08-11T14:59:25;34.00;54.00
54168;DHT22;40072;50.958;3.592;2022-08-11T15:01:50;33.70;53.20
54168;DHT22;40072;50.958;3.592;2022-08-11T15:04:35;34.00;53.80
54168;DHT22;40072;50.958;3.592;2022-08-11T15:07:01;33.70;53.40
54168;DHT22;40072;50.958;3.592;2022-08-11T15:09:27;33.50;53.90
54168;DHT22;40072;50.958;3.592;2022-08-11T15:11:52;34.40;53.90
54168;DHT22;40072;50.958;3.592;2022-08-11T15:14:34;34.00;53.50
54168;DHT22;40072;50.958;3.592;2022-08-11T15:17:19;34.10;54.10
54168;DHT22;40072;50.958;3.592;2022-08-11T15:19:46;34.30;53.60
54168;DHT22;40072;50.958;3.592;2022-08-11T15:22:32;34.20;53.30
54168;DHT22;40072;50.958;3.592;2022-08-11T15:25:17;34.60;53.50
54168;DHT22;40072;50.958;3.592;2022-08-11T15:27:46;34.20;53.20
54168;DHT22;40072;50.958;3.592;2022-08-11T15:30:31;34.30;54.20
54168;DHT22;40072;50.958;3.592;2022-08-11T15:33:17;34.20;54.10
54168;DHT22;40072;50.958;3.592;2022-08-11T15:36:06;34.80;53.50
54168;DHT22;40072;50.958;3.592;2022-08-11T15:39:18;33.70;54.20
54168;DHT22;40072;50.958;3.592;2022-08-11T15:41:56;33.40;54.70
54168;DHT22;40072;50.958;3.592;2022-08-11T15:44:42;33.40;54.10
54168;DHT22;40072;50.958;3.592;2022-08-11T15:47:42;33.60;54.40
54168;DHT22;40072;50.958;3.592;2022-08-11T15:50:17;33.20;54.40
54168;DHT22;40072;50.958;3.592;2022-08-11T15:52:58;33.50;54.40
54168;DHT22;40072;50.958;3.592;2022-08-11T15:55:25;32.80;55.30
54168;DHT22;40072;50.958;3.592;2022-08-11T15:57:55;33.60;55.00
54168;DHT22;40072;50.958;3.592;2022-08-11T16:00:44;33.60;53.80
54168;DHT22;40072;50.958;3.592;2022-08-11T16:03:33;33.70;54.00
54168;DHT22;40072;50.958;3.592;2022-08-11T16:06:19;33.30;53.70
54168;DHT22;40072;50.958;3.592;2022-08-11T16:08:46;32.80;54.30
54168;DHT22;40072;50.958;3.592;2022-08-11T16:11:13;32.70;55.10
54168;DHT22;40072;50.958;3.592;2022-08-11T16:13:39;33.10;54.80
54168;DHT22;40072;50.958;3.592;2022-08-11T16:16:07;33.50;54.40
54168;DHT22;40072;50.958;3.592;2022-08-11T16:21:20;33.70;54.10
54168;DHT22;40072;50.958;3.592;2022-08-11T16:23:49;33.40;53.80
54168;DHT22;40072;50.958;3.592;2022-08-11T16:26:19;32.80;54.30
54168;DHT22;40072;50.958;3.592;2022-08-11T16:28:51;33.00;54.70
54168;DHT22;40072;50.958;3.592;2022-08-11T16:31:19;33.20;54.50
54168;DHT22;40072;50.958;3.592;2022-08-11T16:33:46;33.20;54.10
54168;DHT22;40072;50.958;3.592;2022-08-11T16:36:14;33.10;53.60
54168;DHT22;40072;50.958;3.592;2022-08-11T16:38:59;33.00;54.00
54168;DHT22;40072;50.958;3.592;2022-08-11T16:41:33;32.60;54.50
54168;DHT22;40072;50.958;3.592;2022-08-11T16:44:19;32.60;54.40
54168;DHT22;40072;50.958;3.592;2022-08-11T16:47:09;32.80;54.60
54168;DHT22;40072;50.958;3.592;2022-08-11T16:49:43;33.10;53.30
54168;DHT22;40072;50.958;3.592;2022-08-11T16:52:12;32.60;53.80
54168;DHT22;40072;50.958;3.592;2022-08-11T16:54:40;32.20;54.60
54168;DHT22;40072;50.958;3.592;2022-08-11T16:57:10;32.10;54.70
54168;DHT22;40072;50.958;3.592;2022-08-11T16:59:57;31.90;55.10
54168;DHT22;40072;50.958;3.592;2022-08-11T17:02:29;31.60;55.40
54168;DHT22;40072;50.958;3.592;2022-08-11T17:05:18;31.70;55.30
54168;DHT22;40072;50.958;3.592;2022-08-11T17:08:06;31.50;55.80
54168;DHT22;40072;50.958;3.592;2022-08-11T17:13:51;31.60;55.40
54168;DHT22;40072;50.958;3.592;2022-08-11T17:16:22;31.50;55.20
54168;DHT22;40072;50.958;3.592;2022-08-11T17:21:32;31.30;54.80
54168;DHT22;40072;50.958;3.592;2022-08-11T17:24:06;31.20;56.10
54168;DHT22;40072;50.958;3.592;2022-08-11T17:26:45;31.20;55.90
54168;DHT22;40072;50.958;3.592;2022-08-11T17:29:30;31.20;55.70
54168;DHT22;40072;50.958;3.592;2022-08-11T17:32:00;31.20;55.60
54168;DHT22;40072;50.958;3.592;2022-08-11T17:34:45;31.20;55.80
54168;DHT22;40072;50.958;3.592;2022-08-11T17:37:33;31.30;56.20
54168;DHT22;40072;50.958;3.592;2022-08-11T17:40:02;31.10;56.40
54168;DHT22;40072;50.958;3.592;2022-08-11T17:42:30;31.00;56.40
54168;DHT22;40072;50.958;3.592;2022-08-11T17:45:17;31.00;56.30
54168;DHT22;40072;50.958;3.592;2022-08-11T17:48:19;30.90;56.60
54168;DHT22;40072;50.958;3.592;2022-08-11T17:50:59;31.00;56.60
54168;DHT22;40072;50.958;3.592;2022-08-11T17:53:29;30.90;56.70
54168;DHT22;40072;50.958;3.592;2022-08-11T17:56:15;30.80;56.90
54168;DHT22;40072;50.958;3.592;2022-08-11T17:59:01;30.70;56.90
54168;DHT22;40072;50.958;3.592;2022-08-11T18:01:47;30.80;57.00
54168;DHT22;40072;50.958;3.592;2022-08-11T18:04:15;30.50;57.60
54168;DHT22;40072;50.958;3.592;2022-08-11T18:06:43;30.50;57.70
54168;DHT22;40072;50.958;3.592;2022-08-11T18:09:14;30.40;57.80
54168;DHT22;40072;50.958;3.592;2022-08-11T18:11:59;30.40;57.90
54168;DHT22;40072;50.958;3.592;2022-08-11T18:14:47;30.40;58.10
54168;DHT22;40072;50.958;3.592;2022-08-11T18:17:32;30.30;57.90
54168;DHT22;40072;50.958;3.592;2022-08-11T18:20:18;30.30;57.90
54168;DHT22;40072;50.958;3.592;2022-08-11T18:23:06;30.30;58.00
54168;DHT22;40072;50.958;3.592;2022-08-11T18:25:52;30.20;58.00
54168;DHT22;40072;50.958;3.592;2022-08-11T18:28:47;30.10;58.60
54168;DHT22;40072;50.958;3.592;2022-08-11T18:31:35;30.20;58.40
54168;DHT22;40072;50.958;3.592;2022-08-11T18:34:29;30.10;58.40
54168;DHT22;40072;50.958;3.592;2022-08-11T18:37:23;29.90;58.70
54168;DHT22;40072;50.958;3.592;2022-08-11T18:40:13;29.90;58.60
54168;DHT22;40072;50.958;3.592;2022-08-11T18:43:04;29.70;58.70
54168;DHT22;40072;50.958;3.592;2022-08-11T18:45:51;29.70;59.20
54168;DHT22;40072;50.958;3.592;2022-08-11T18:48:39;29.50;59.20
54168;DHT22;40072;50.958;3.592;2022-08-11T18:51:25;29.50;60.00
54168;DHT22;40072;50.958;3.592;2022-08-11T18:54:12;29.60;59.50
54168;DHT22;40072;50.958;3.592;2022-08-11T18:57:00;29.40;59.30
54168;DHT22;40072;50.958;3.592;2022-08-11T18:59:45;29.30;59.80
54168;DHT22;40072;50.958;3.592;2022-08-11T19:02:31;29.10;60.50
54168;DHT22;40072;50.958;3.592;2022-08-11T19:05:18;28.90;60.60
54168;DHT22;40072;50.958;3.592;2022-08-11T19:08:05;28.80;60.50
54168;DHT22;40072;50.958;3.592;2022-08-11T19:10:52;28.90;60.00
54168;DHT22;40072;50.958;3.592;2022-08-11T19:13:38;28.60;60.30
54168;DHT22;40072;50.958;3.592;2022-08-11T19:16:23;28.50;61.00
54168;DHT22;40072;50.958;3.592;2022-08-11T19:19:09;28.30;60.70
54168;DHT22;40072;50.958;3.592;2022-08-11T19:21:56;28.40;61.20
54168;DHT22;40072;50.958;3.592;2022-08-11T19:24:41;28.40;61.50
54168;DHT22;40072;50.958;3.592;2022-08-11T19:27:27;28.30;61.90
54168;DHT22;40072;50.958;3.592;2022-08-11T19:30:12;28.20;61.90
54168;DHT22;40072;50.958;3.592;2022-08-11T19:32:57;28.20;61.90
54168;DHT22;40072;50.958;3.592;2022-08-11T19:35:43;28.10;62.10
54168;DHT22;40072;50.958;3.592;2022-08-11T19:38:29;27.80;62.60
54168;DHT22;40072;50.958;3.592;2022-08-11T19:41:15;27.80;62.80
54168;DHT22;40072;50.958;3.592;2022-08-11T19:44:01;27.70;62.80
54168;DHT22;40072;50.958;3.592;2022-08-11T19:46:47;27.70;62.70
54168;DHT22;40072;50.958;3.592;2022-08-11T19:49:32;27.50;63.30
54168;DHT22;40072;50.958;3.592;2022-08-11T19:52:17;27.20;63.50
54168;DHT22;40072;50.958;3.592;2022-08-11T19:55:04;27.00;64.10
54168;DHT22;40072;50.958;3.592;2022-08-11T19:57:48;26.80;65.40
54168;DHT22;40072;50.958;3.592;2022-08-11T20:00:33;26.90;64.60
54168;DHT22;40072;50.958;3.592;2022-08-11T20:03:17;26.90;64.60
54168;DHT22;40072;50.958;3.592;2022-08-11T20:06:06;26.80;64.50